createdAt,value
2019-02-03T00:00:38.557Z,116
2019-02-03T00:05:40.936Z,118
2019-02-03T00:10:43.414Z,99
2019-02-03T00:15:45.831Z,121
2019-02-03T00:20:48.290Z,141
2019-02-03T00:25:50.761Z,151
2019-02-03T00:30:53.264Z,132
2019-02-03T00:35:55.687Z,128
2019-02-03T00:40:58.245Z,102
2019-02-03T00:46:00.648Z,107
2019-02-03T00:51:03.094Z,90
2019-02-03T00:56:05.577Z,103
2019-02-03T01:01:08.010Z,119
2019-02-03T01:06:10.486Z,98
2019-02-03T01:11:12.941Z,112
2019-02-03T01:16:15.410Z,115
2019-02-03T01:21:17.871Z,174
2019-02-03T01:26:20.339Z,195
2019-02-03T01:31:22.800Z,299
2019-02-03T01:36:25.257Z,265
2019-02-03T01:41:27.751Z,290
2019-02-03T01:46:30.207Z,312
2019-02-03T01:51:32.659Z,226
2019-02-03T01:56:35.128Z,142
2019-02-03T02:01:37.591Z,113
2019-02-03T02:06:40.061Z,116
2019-02-03T02:11:42.524Z,149
2019-02-03T02:16:45.079Z,194
2019-02-03T02:21:47.483Z,154
2019-02-03T02:26:50.019Z,150
2019-02-03T02:31:52.482Z,141
2019-02-03T02:36:54.838Z,131
2019-02-03T02:41:57.337Z,104
2019-02-03T02:46:59.779Z,92
2019-02-03T02:52:02.399Z,130
2019-02-03T02:57:04.718Z,153
2019-02-03T03:02:07.159Z,239
2019-02-03T03:07:09.635Z,278
2019-02-03T03:12:12.116Z,212
2019-02-03T03:17:14.591Z,206
2019-02-03T03:22:17.110Z,224
2019-02-03T03:27:19.496Z,231
2019-02-03T03:32:21.952Z,207
2019-02-03T03:37:24.473Z,231
2019-02-03T03:42:26.897Z,212
2019-02-03T03:47:29.400Z,176
2019-02-03T03:52:31.850Z,239
2019-02-03T03:57:34.371Z,237
2019-02-03T04:02:36.747Z,224
2019-02-03T04:07:39.209Z,324
2019-02-03T04:12:41.679Z,178
2019-02-03T04:17:44.143Z,176
2019-02-03T04:22:46.609Z,316
2019-02-03T04:27:49.089Z,309
2019-02-03T04:32:51.561Z,355
2019-02-03T04:37:54.001Z,323
2019-02-03T04:42:56.475Z,248
2019-02-03T04:47:58.935Z,165
2019-02-03T04:53:01.394Z,195
2019-02-03T04:58:03.884Z,156
2019-02-03T05:03:06.327Z,134
2019-02-03T05:08:08.799Z,112
2019-02-03T05:13:11.279Z,90
2019-02-03T05:18:13.721Z,89
2019-02-03T05:23:16.574Z,99
2019-02-03T05:28:18.703Z,92
2019-02-03T05:33:21.125Z,77
2019-02-03T05:38:23.567Z,78
2019-02-03T05:43:26.060Z,74
2019-02-03T05:48:28.568Z,57
2019-02-03T05:53:31.031Z,62
2019-02-03T05:58:33.438Z,53
2019-02-03T06:03:35.902Z,48
2019-02-03T06:08:38.406Z,52
2019-02-03T06:13:40.845Z,49
2019-02-03T06:18:43.345Z,48
2019-02-03T06:23:45.762Z,51
2019-02-03T06:28:48.232Z,46
2019-02-03T06:33:50.710Z,45
2019-02-03T06:38:53.178Z,46
2019-02-03T06:43:55.666Z,43
2019-02-03T06:48:58.115Z,44
2019-02-03T06:54:00.536Z,38
2019-02-03T06:59:03.093Z,42
2019-02-03T07:04:05.500Z,40
2019-02-03T07:09:07.946Z,45
2019-02-03T07:14:10.428Z,46
2019-02-03T07:19:12.891Z,35
2019-02-03T07:24:15.322Z,33
2019-02-03T07:29:17.801Z,45
2019-02-03T07:34:20.263Z,36
2019-02-03T07:39:22.728Z,40
2019-02-03T07:44:25.201Z,32
2019-02-03T07:49:27.655Z,42
2019-02-03T07:54:30.145Z,36
2019-02-03T07:59:32.635Z,39
2019-02-03T08:04:35.050Z,35
2019-02-03T08:09:37.514Z,38
2019-02-03T08:14:39.972Z,34
2019-02-03T08:19:42.434Z,37
2019-02-03T08:24:44.910Z,30
2019-02-03T08:29:47.413Z,39
2019-02-03T08:34:49.852Z,33
2019-02-03T08:39:52.320Z,31
2019-02-03T08:44:54.788Z,33
2019-02-03T08:49:57.240Z,32
2019-02-03T08:54:59.704Z,32
2019-02-03T09:00:02.301Z,27
2019-02-03T09:05:04.642Z,30
2019-02-03T09:10:07.129Z,31
2019-02-03T09:15:09.549Z,24
2019-02-03T09:20:12.173Z,25
2019-02-03T09:25:14.481Z,28
2019-02-03T09:30:16.952Z,25
2019-02-03T09:35:19.403Z,24
2019-02-03T09:40:21.876Z,20
2019-02-03T09:45:24.359Z,24
2019-02-03T09:50:26.808Z,22
2019-02-03T09:55:29.296Z,22
2019-02-03T10:00:31.741Z,19
2019-02-03T10:05:37.060Z,18
2019-02-03T10:10:36.668Z,21
2019-02-03T10:15:39.148Z,28
2019-02-03T10:20:41.616Z,26
2019-02-03T10:25:44.064Z,31
2019-02-03T10:30:46.534Z,27
2019-02-03T10:35:49.000Z,30
2019-02-03T10:45:53.927Z,37
2019-02-03T10:50:56.386Z,36
2019-02-03T10:55:58.849Z,35
2019-02-03T11:01:01.393Z,35
2019-02-03T11:06:03.774Z,36
2019-02-03T11:16:08.791Z,30
2019-02-03T11:21:11.170Z,37
2019-02-03T11:26:13.637Z,40
2019-02-03T11:31:16.173Z,34
2019-02-03T11:36:18.566Z,31
2019-02-03T11:41:21.044Z,35
2019-02-03T11:46:23.511Z,27
2019-02-03T11:51:26.005Z,26
2019-02-03T11:56:28.447Z,30
2019-02-03T12:01:30.900Z,29
2019-02-03T12:06:33.375Z,32
2019-02-03T12:11:36.135Z,25
2019-02-03T12:16:38.337Z,25
2019-02-03T12:21:40.771Z,24
2019-02-03T12:26:43.229Z,20
2019-02-03T12:31:45.704Z,19
2019-02-03T12:36:48.225Z,19
2019-02-03T12:41:50.635Z,15
2019-02-03T12:46:53.112Z,14
2019-02-03T12:51:55.557Z,15
2019-02-03T12:56:58.022Z,20
2019-02-03T13:02:00.486Z,17
2019-02-03T13:07:03.027Z,15
2019-02-03T13:12:05.441Z,16
2019-02-03T13:17:07.889Z,15
2019-02-03T13:22:10.364Z,18
2019-02-03T13:27:12.858Z,25
2019-02-03T13:32:15.311Z,14
2019-02-03T13:37:17.828Z,12
2019-02-03T13:42:20.209Z,13
2019-02-03T13:47:22.797Z,13
2019-02-03T13:52:25.129Z,12
2019-02-03T13:57:27.591Z,13
2019-02-03T14:02:30.087Z,10
2019-02-03T14:07:32.516Z,15
2019-02-03T14:12:34.993Z,15
2019-02-03T14:17:37.481Z,20
2019-02-03T14:22:40.009Z,15
2019-02-03T14:27:42.382Z,19
2019-02-03T14:32:44.938Z,18
2019-02-03T14:37:47.360Z,18
2019-02-03T14:43:00.797Z,14
2019-02-03T14:47:52.240Z,17
2019-02-03T14:52:54.711Z,14
2019-02-03T14:57:57.362Z,16
2019-02-03T15:02:59.637Z,13
2019-02-03T15:08:02.138Z,21
2019-02-03T15:18:07.047Z,15
2019-02-03T15:23:09.505Z,22
2019-02-03T15:28:12.100Z,16
2019-02-03T15:33:14.420Z,19
2019-02-03T15:38:16.906Z,14
2019-02-03T15:43:25.267Z,17
2019-02-03T15:48:21.824Z,13
2019-02-03T15:53:24.302Z,12
2019-02-03T15:58:26.739Z,12
2019-02-03T16:03:29.212Z,12
2019-02-03T16:08:31.666Z,14
2019-02-03T16:13:36.889Z,13
2019-02-03T16:18:36.588Z,13
2019-02-03T16:23:39.049Z,23
2019-02-03T16:28:41.520Z,23
2019-02-03T16:33:43.987Z,23
2019-02-03T16:38:46.461Z,24
2019-02-03T16:43:49.411Z,21
2019-02-03T16:48:51.456Z,25
2019-02-03T16:53:53.848Z,13
2019-02-03T16:58:56.318Z,19
2019-02-03T17:03:58.858Z,15
2019-02-03T17:09:01.334Z,15
2019-02-03T17:14:03.679Z,13
2019-02-03T17:19:06.152Z,14
2019-02-03T17:24:08.592Z,17
2019-02-03T17:29:11.052Z,16
2019-02-03T17:34:13.523Z,13
2019-02-03T17:39:16.004Z,15
2019-02-03T17:44:20.025Z,17
2019-02-03T17:49:20.960Z,21
2019-02-03T17:54:23.360Z,25
2019-02-03T17:59:25.847Z,18
2019-02-03T18:04:28.311Z,20
2019-02-03T18:09:30.774Z,25
2019-02-03T18:14:33.270Z,28
2019-02-03T18:19:35.705Z,31
2019-02-03T18:24:38.183Z,30
2019-02-03T18:29:40.608Z,27
2019-02-03T18:34:43.073Z,33
2019-02-03T18:39:45.529Z,32
2019-02-03T18:44:47.997Z,32
2019-02-03T18:49:50.481Z,29
2019-02-03T18:54:52.944Z,30
2019-02-03T18:59:55.670Z,35
2019-02-03T19:04:57.880Z,41
2019-02-03T19:10:00.371Z,35
2019-02-03T19:15:02.756Z,33
2019-02-03T19:20:05.245Z,37
2019-02-03T19:25:07.698Z,36
2019-02-03T19:30:10.186Z,37
2019-02-03T19:35:12.693Z,37
2019-02-03T19:40:15.115Z,39
2019-02-03T19:45:17.568Z,40
2019-02-03T19:50:20.065Z,38
2019-02-03T19:55:22.512Z,33
2019-02-03T20:00:24.948Z,39
2019-02-03T20:05:27.398Z,47
2019-02-03T20:10:29.922Z,35
2019-02-03T20:15:32.324Z,36
2019-02-03T20:20:34.770Z,37
2019-02-03T20:25:37.363Z,33
2019-02-03T20:30:39.724Z,32
2019-02-03T20:35:42.170Z,29
2019-02-03T20:40:44.626Z,35
2019-02-03T20:45:49.696Z,34
2019-02-03T20:50:49.998Z,33
2019-02-03T20:55:52.010Z,38
2019-02-03T21:00:54.471Z,35
2019-02-03T21:05:56.949Z,31
2019-02-03T21:10:59.397Z,35
2019-02-03T21:16:01.909Z,34
2019-02-03T21:21:04.307Z,35
2019-02-03T21:26:15.813Z,33
2019-02-03T21:31:09.262Z,35
2019-02-03T21:36:11.710Z,40
2019-02-03T21:41:14.159Z,30
2019-02-03T21:46:16.693Z,34
2019-02-03T21:51:19.100Z,37
2019-02-03T21:56:21.549Z,32
2019-02-03T22:01:24.041Z,30
2019-02-03T22:06:26.481Z,35
2019-02-03T22:11:28.930Z,31
2019-02-03T22:16:31.463Z,30
2019-02-03T22:21:33.908Z,32
2019-02-03T22:26:36.444Z,32
2019-02-03T22:31:38.786Z,32
2019-02-03T22:36:41.277Z,33
2019-02-03T22:41:43.726Z,43
2019-02-03T22:46:46.357Z,34
2019-02-03T22:51:48.748Z,32
2019-02-03T22:56:51.105Z,36
2019-02-03T23:01:53.583Z,32
2019-02-03T23:06:56.033Z,32
2019-02-03T23:11:58.515Z,32
2019-02-03T23:17:00.943Z,32
2019-02-03T23:22:03.419Z,29
2019-02-03T23:27:05.902Z,30
2019-02-03T23:32:08.370Z,30
2019-02-03T23:37:10.846Z,36
2019-02-03T23:42:13.377Z,31
2019-02-03T23:52:18.238Z,33
2019-02-03T23:57:20.701Z,31
